createdAt,value
2017-06-17T00:00:52.530Z,0
2017-06-17T00:02:07.996Z,0
2017-06-17T00:03:23.477Z,0
2017-06-17T00:04:39.167Z,0
2017-06-17T00:05:54.333Z,0
2017-06-17T00:07:09.993Z,0
2017-06-17T00:08:56.128Z,0
2017-06-17T00:10:10.298Z,0
2017-06-17T00:11:25.957Z,0
2017-06-17T00:12:41.657Z,0
2017-06-17T00:13:57.147Z,0
2017-06-17T00:15:12.615Z,0
2017-06-17T00:16:27.687Z,0
2017-06-17T00:17:43.133Z,0
2017-06-17T00:18:58.716Z,0
2017-06-17T00:20:14.203Z,0
2017-06-17T00:21:29.630Z,0
2017-06-17T00:22:45.081Z,0
2017-06-17T00:24:00.443Z,0
2017-06-17T00:25:15.907Z,0
2017-06-17T00:26:30.355Z,0
2017-06-17T00:27:45.999Z,0
2017-06-17T00:29:00.166Z,0
2017-06-17T00:30:14.312Z,0
2017-06-17T00:31:29.746Z,0
2017-06-17T00:32:43.944Z,0
2017-06-17T00:33:59.412Z,0
2017-06-17T00:35:14.898Z,0
2017-06-17T00:36:30.372Z,0
2017-06-17T00:37:45.849Z,0
2017-06-17T00:39:01.306Z,0
2017-06-17T00:40:16.824Z,0
2017-06-17T00:41:31.076Z,0
2017-06-17T00:42:46.732Z,0
2017-06-17T00:44:02.322Z,0
2017-06-17T00:45:17.811Z,0
2017-06-17T00:46:31.803Z,0
2017-06-17T00:47:47.345Z,0
2017-06-17T00:49:00.205Z,0
2017-06-17T00:50:15.742Z,0
2017-06-17T00:51:31.154Z,0
2017-06-17T00:52:45.246Z,0
2017-06-17T00:54:00.344Z,0
2017-06-17T00:55:15.830Z,0
2017-06-17T00:56:31.295Z,0
2017-06-17T00:57:46.750Z,0
2017-06-17T00:59:02.156Z,0
2017-06-17T01:00:17.633Z,0
2017-06-17T01:01:33.084Z,0
2017-06-17T01:02:48.502Z,0
2017-06-17T01:04:02.652Z,0
2017-06-17T01:05:18.118Z,0
2017-06-17T01:07:04.386Z,0
2017-06-17T01:08:18.550Z,0
2017-06-17T01:09:34.038Z,0
2017-06-17T01:10:49.511Z,0
2017-06-17T01:12:05.126Z,0
2017-06-17T01:13:20.662Z,0
2017-06-17T01:14:36.070Z,0
2017-06-17T01:15:51.645Z,0
2017-06-17T01:17:06.747Z,0
2017-06-17T01:18:22.179Z,0
2017-06-17T01:19:36.359Z,0
2017-06-17T01:20:51.799Z,0
2017-06-17T01:22:05.943Z,0
2017-06-17T01:23:21.444Z,0
2017-06-17T01:24:36.906Z,0
2017-06-17T01:25:52.318Z,0
2017-06-17T01:27:07.756Z,0
2017-06-17T01:28:23.246Z,0
2017-06-17T01:29:38.949Z,0
2017-06-17T01:30:56.178Z,0
2017-06-17T01:32:26.480Z,0
2017-06-17T01:35:27.113Z,0
2017-06-17T01:36:42.947Z,0
2017-06-17T01:37:58.855Z,0
2017-06-17T01:39:14.328Z,0
2017-06-17T01:40:29.799Z,0
2017-06-17T01:41:45.307Z,0
2017-06-17T01:43:01.066Z,0
2017-06-17T01:44:16.459Z,0
2017-06-17T01:45:31.946Z,0
2017-06-17T01:46:47.411Z,0
2017-06-17T01:48:02.842Z,0
2017-06-17T01:49:18.271Z,0
2017-06-17T01:50:32.423Z,0
2017-06-17T01:51:47.849Z,0
2017-06-17T01:53:02.224Z,0
2017-06-17T01:54:17.691Z,0
2017-06-17T01:55:33.131Z,0
2017-06-17T01:56:48.741Z,0
2017-06-17T01:58:04.174Z,0
2017-06-17T01:59:19.819Z,0
2017-06-17T02:00:35.305Z,0
2017-06-17T02:01:50.767Z,0
2017-06-17T02:03:06.235Z,0
2017-06-17T02:04:21.733Z,0
2017-06-17T02:05:37.232Z,0
2017-06-17T02:06:52.701Z,4
2017-06-17T02:08:07.792Z,4
2017-06-17T02:09:23.243Z,0
2017-06-17T02:10:38.708Z,0
2017-06-17T02:11:54.163Z,4
2017-06-17T02:13:09.666Z,4
2017-06-17T02:14:25.136Z,4
2017-06-17T02:15:40.616Z,4
2017-06-17T02:16:56.117Z,8
2017-06-17T02:18:11.541Z,4
2017-06-17T02:19:27.229Z,8
2017-06-17T02:20:42.825Z,8
2017-06-17T02:21:58.356Z,8
2017-06-17T02:23:13.809Z,12
2017-06-17T02:24:28.049Z,16
2017-06-17T02:25:42.074Z,16
2017-06-17T02:26:57.276Z,16
2017-06-17T02:28:12.705Z,24
2017-06-17T02:29:28.149Z,24
2017-06-17T02:30:43.557Z,28
2017-06-17T02:31:57.733Z,36
2017-06-17T02:33:13.284Z,36
2017-06-17T02:34:28.737Z,40
2017-06-17T02:35:43.918Z,48
2017-06-17T02:36:59.422Z,56
2017-06-17T02:38:13.578Z,64
2017-06-17T02:39:29.011Z,72
2017-06-17T02:40:43.121Z,84
2017-06-17T02:42:29.237Z,100
2017-06-17T02:43:44.661Z,112
2017-06-17T02:45:00.124Z,128
2017-06-17T02:46:15.598Z,140
2017-06-17T02:47:31.056Z,160
2017-06-17T02:48:45.235Z,180
2017-06-17T02:50:00.719Z,196
2017-06-17T02:51:16.209Z,220
2017-06-17T02:52:31.403Z,240
2017-06-17T02:53:46.836Z,264
2017-06-17T02:55:02.274Z,284
2017-06-17T02:56:17.729Z,308
2017-06-17T02:57:33.215Z,336
2017-06-17T02:58:48.684Z,364
2017-06-17T03:00:00.092Z,388
2017-06-17T03:01:15.849Z,416
2017-06-17T03:02:31.286Z,448
2017-06-17T03:03:46.746Z,476
2017-06-17T03:05:02.194Z,508
2017-06-17T03:06:16.302Z,540
2017-06-17T03:07:31.744Z,576
2017-06-17T03:08:47.213Z,608
2017-06-17T03:10:02.661Z,636
2017-06-17T03:11:18.343Z,672
2017-06-17T03:12:32.704Z,704
2017-06-17T03:13:48.103Z,740
2017-06-17T03:15:02.283Z,780
2017-06-17T03:16:16.462Z,820
2017-06-17T03:17:32.347Z,872
2017-06-17T03:18:47.955Z,904
2017-06-17T03:20:03.414Z,932
2017-06-17T03:21:18.884Z,960
2017-06-17T03:22:34.395Z,988
2017-06-17T03:23:49.866Z,1020
2017-06-17T03:25:05.242Z,1052
2017-06-17T03:26:20.743Z,1080
2017-06-17T03:27:36.170Z,1120
2017-06-17T03:28:51.703Z,1156
2017-06-17T03:30:07.146Z,1176
2017-06-17T03:31:22.609Z,1212
2017-06-17T03:32:38.135Z,1236
2017-06-17T03:33:54.004Z,1272
2017-06-17T03:35:09.385Z,1316
2017-06-17T03:36:23.397Z,1348
2017-06-17T03:37:39.870Z,1376
2017-06-17T03:38:56.763Z,1416
2017-06-17T03:40:11.631Z,1440
2017-06-17T03:41:27.133Z,1472
2017-06-17T03:42:42.167Z,1504
2017-06-17T03:43:57.599Z,1540
2017-06-17T03:45:13.006Z,1596
2017-06-17T03:46:28.466Z,1636
2017-06-17T03:47:44.207Z,1672
2017-06-17T03:48:59.642Z,1668
2017-06-17T03:50:15.073Z,1716
2017-06-17T03:51:30.548Z,1756
2017-06-17T03:52:46.029Z,1832
2017-06-17T03:54:01.544Z,1912
2017-06-17T03:55:17.157Z,1988
2017-06-17T03:56:32.611Z,1980
2017-06-17T03:57:48.038Z,1948
2017-06-17T03:59:04.022Z,1924
2017-06-17T04:00:19.124Z,1924
2017-06-17T04:01:34.238Z,1944
2017-06-17T04:02:49.644Z,2044
2017-06-17T04:04:02.487Z,2124
2017-06-17T04:05:17.972Z,2136
2017-06-17T04:06:33.601Z,2296
2017-06-17T04:07:47.733Z,2528
2017-06-17T04:09:03.310Z,2992
2017-06-17T04:10:17.482Z,2772
2017-06-17T04:11:33.038Z,2800
2017-06-17T04:12:48.512Z,3228
2017-06-17T04:14:04.100Z,2248
2017-06-17T04:15:19.583Z,2520
2017-06-17T04:16:35.055Z,2812
2017-06-17T04:17:50.495Z,3440
2017-06-17T04:19:04.351Z,3556
2017-06-17T04:20:18.497Z,3524
2017-06-17T04:21:33.936Z,3392
2017-06-17T04:22:48.081Z,3292
2017-06-17T04:24:03.520Z,3596
2017-06-17T04:25:49.835Z,3764
2017-06-17T04:27:05.250Z,3348
2017-06-17T04:28:20.699Z,3408
2017-06-17T04:29:36.199Z,3604
2017-06-17T04:30:50.332Z,3836
2017-06-17T04:32:05.807Z,4176
2017-06-17T04:33:21.230Z,4088
2017-06-17T04:34:36.732Z,3460
2017-06-17T04:35:52.401Z,3612
2017-06-17T04:37:07.833Z,3636
2017-06-17T04:38:22.166Z,4004
2017-06-17T04:39:37.583Z,3884
2017-06-17T04:40:53.255Z,3776
2017-06-17T04:42:08.707Z,3772
2017-06-17T04:43:24.181Z,3836
2017-06-17T04:44:39.605Z,3848
2017-06-17T04:45:55.292Z,3828
2017-06-17T04:47:09.347Z,3968
2017-06-17T04:48:24.839Z,4232
2017-06-17T04:49:40.310Z,4500
2017-06-17T04:50:55.761Z,4716
2017-06-17T04:52:11.244Z,5300
2017-06-17T04:53:26.723Z,5404
2017-06-17T04:54:42.481Z,6380
2017-06-17T04:55:57.973Z,5344
2017-06-17T04:57:12.101Z,5432
2017-06-17T04:58:27.726Z,6044
2017-06-17T04:59:40.523Z,5900
2017-06-17T05:00:55.980Z,5508
2017-06-17T05:02:11.425Z,5248
2017-06-17T05:03:27.099Z,5568
2017-06-17T05:04:42.511Z,5596
2017-06-17T05:05:58.263Z,5368
2017-06-17T05:07:12.417Z,5004
2017-06-17T05:08:27.848Z,4932
2017-06-17T05:09:43.510Z,4492
2017-06-17T05:10:59.633Z,4412
2017-06-17T05:12:15.093Z,4540
2017-06-17T05:13:30.546Z,4692
2017-06-17T05:14:44.687Z,4888
2017-06-17T05:16:00.095Z,4828
2017-06-17T05:17:15.569Z,5160
2017-06-17T05:18:31.035Z,5332
2017-06-17T05:19:46.495Z,6572
2017-06-17T05:21:01.977Z,6784
2017-06-17T05:22:17.407Z,6964
2017-06-17T05:23:32.814Z,6836
2017-06-17T05:24:48.354Z,6736
2017-06-17T05:26:03.783Z,6216
2017-06-17T05:27:19.432Z,6232
2017-06-17T05:28:34.886Z,4796
2017-06-17T05:29:50.342Z,5460
2017-06-17T05:31:04.689Z,5412
2017-06-17T05:32:20.260Z,5664
2017-06-17T05:33:34.469Z,5208
2017-06-17T05:34:50.006Z,4548
2017-06-17T05:36:05.500Z,3580
2017-06-17T05:37:34.532Z,3572
2017-06-17T05:38:50.147Z,4652
2017-06-17T05:40:05.539Z,4020
2017-06-17T05:41:20.989Z,3608
2017-06-17T05:42:36.828Z,3396
2017-06-17T05:43:52.297Z,4272
2017-06-17T05:45:07.779Z,5208
2017-06-17T05:46:23.357Z,4628
2017-06-17T05:47:38.812Z,4236
2017-06-17T05:48:54.216Z,4332
2017-06-17T05:50:09.896Z,3712
2017-06-17T05:51:25.364Z,4160
2017-06-17T05:52:39.488Z,5404
2017-06-17T05:53:54.955Z,8492
2017-06-17T05:55:10.622Z,8724
2017-06-17T05:56:26.012Z,9336
2017-06-17T05:57:41.437Z,10516
2017-06-17T05:58:56.905Z,9924
2017-06-17T06:00:12.335Z,9824
2017-06-17T06:01:27.775Z,9712
2017-06-17T06:02:43.095Z,9692
2017-06-17T06:03:58.500Z,8984
2017-06-17T06:05:12.713Z,9544
2017-06-17T06:06:28.360Z,8452
2017-06-17T06:07:44.062Z,8116
2017-06-17T06:08:59.545Z,8968
2017-06-17T06:10:14.994Z,8992
2017-06-17T06:11:30.503Z,8564
2017-06-17T06:12:45.848Z,8208
2017-06-17T06:14:00.005Z,8476
2017-06-17T06:15:15.512Z,10468
2017-06-17T06:16:30.941Z,9960
2017-06-17T06:17:46.416Z,10116
2017-06-17T06:19:01.842Z,8512
2017-06-17T06:20:17.228Z,9032
2017-06-17T06:21:32.715Z,8652
2017-06-17T06:22:48.178Z,10036
2017-06-17T06:24:02.355Z,8996
2017-06-17T06:25:16.380Z,9544
2017-06-17T06:26:31.966Z,9552
2017-06-17T06:27:47.452Z,11448
2017-06-17T06:29:02.907Z,10632
2017-06-17T06:30:18.385Z,8244
2017-06-17T06:31:33.847Z,6224
2017-06-17T06:32:49.307Z,7020
2017-06-17T06:34:04.752Z,8672
2017-06-17T06:35:20.284Z,9528
2017-06-17T06:36:35.703Z,8672
2017-06-17T06:37:49.906Z,8212
2017-06-17T06:39:05.377Z,8336
2017-06-17T06:40:21.038Z,8908
2017-06-17T06:41:36.467Z,10224
2017-06-17T06:42:52.099Z,11060
2017-06-17T06:44:19.841Z,12176
2017-06-17T06:45:35.322Z,11568
2017-06-17T06:46:50.813Z,14044
2017-06-17T06:48:04.976Z,14700
2017-06-17T06:49:20.100Z,14448
2017-06-17T06:50:35.258Z,12972
2017-06-17T06:51:49.391Z,11712
2017-06-17T06:53:04.810Z,11812
2017-06-17T06:54:20.513Z,12056
2017-06-17T06:55:36.004Z,12156
2017-06-17T06:56:51.464Z,11900
2017-06-17T06:58:05.540Z,12928
2017-06-17T06:59:21.274Z,12060
2017-06-17T07:00:36.467Z,12040
2017-06-17T07:01:51.963Z,14104
2017-06-17T07:03:07.561Z,11792
2017-06-17T07:04:21.696Z,11720
2017-06-17T07:05:37.143Z,11792
2017-06-17T07:06:52.707Z,11700
2017-06-17T07:08:08.370Z,12784
2017-06-17T07:09:24.035Z,13652
2017-06-17T07:10:39.514Z,12516
2017-06-17T07:11:55.073Z,15360
2017-06-17T07:13:10.548Z,12732
2017-06-17T07:14:24.703Z,13516
2017-06-17T07:15:38.828Z,14396
2017-06-17T07:16:54.330Z,14276
2017-06-17T07:18:09.761Z,13736
2017-06-17T07:19:25.188Z,14268
2017-06-17T07:20:39.460Z,15748
2017-06-17T07:21:54.949Z,14368
2017-06-17T07:23:10.398Z,14036
2017-06-17T07:24:24.634Z,16864
2017-06-17T07:25:40.267Z,18752
2017-06-17T07:26:53.973Z,15616
2017-06-17T07:28:09.866Z,13552
2017-06-17T07:29:25.482Z,11348
2017-06-17T07:30:40.918Z,12780
2017-06-17T07:31:56.368Z,16960
2017-06-17T07:33:11.804Z,16704
2017-06-17T07:34:27.288Z,16992
2017-06-17T07:35:42.787Z,11980
2017-06-17T07:36:58.264Z,8816
2017-06-17T07:38:13.729Z,11432
2017-06-17T07:39:29.199Z,15316
2017-06-17T07:40:44.711Z,14324
2017-06-17T07:42:00.224Z,11388
2017-06-17T07:43:15.859Z,13608
2017-06-17T07:44:31.319Z,19584
2017-06-17T07:45:46.799Z,16960
2017-06-17T07:47:01.905Z,15520
2017-06-17T07:48:17.333Z,15968
2017-06-17T07:49:31.512Z,16512
2017-06-17T07:50:47.018Z,17728
2017-06-17T07:52:01.156Z,13896
2017-06-17T07:53:16.610Z,11696
2017-06-17T07:54:32.068Z,15232
2017-06-17T07:55:47.611Z,17152
2017-06-17T07:57:03.058Z,18656
2017-06-17T07:58:18.510Z,18816
2017-06-17T07:59:34.254Z,16352
2017-06-17T08:00:49.738Z,19232
2017-06-17T08:02:05.247Z,15632
2017-06-17T08:03:20.741Z,13024
2017-06-17T08:04:36.457Z,11616
2017-06-17T08:05:52.097Z,16352
2017-06-17T08:07:07.746Z,21312
2017-06-17T08:08:21.937Z,19936
2017-06-17T08:09:37.352Z,21536
2017-06-17T08:10:51.505Z,14948
2017-06-17T08:12:06.972Z,13464
2017-06-17T08:13:22.645Z,20192
2017-06-17T08:14:37.736Z,16096
2017-06-17T08:15:53.314Z,13208
2017-06-17T08:17:07.367Z,14232
2017-06-17T08:18:22.848Z,16672
2017-06-17T08:19:38.331Z,14188
2017-06-17T08:20:53.991Z,18752
2017-06-17T08:22:09.488Z,20896
2017-06-17T08:23:24.749Z,19392
2017-06-17T08:24:40.406Z,19072
2017-06-17T08:25:55.924Z,17600
2017-06-17T08:27:11.434Z,16480
2017-06-17T08:28:26.863Z,22240
2017-06-17T08:29:42.332Z,17888
2017-06-17T08:30:58.011Z,18944
2017-06-17T08:32:12.040Z,17440
2017-06-17T08:33:27.487Z,19968
2017-06-17T08:34:41.545Z,20512
2017-06-17T08:35:57.051Z,20480
2017-06-17T08:37:12.538Z,22016
2017-06-17T08:38:28.066Z,22304
2017-06-17T08:39:43.542Z,18656
2017-06-17T08:40:59.003Z,24800
2017-06-17T08:42:13.265Z,17312
2017-06-17T08:43:27.428Z,19648
2017-06-17T08:44:43.099Z,28256
2017-06-17T08:45:58.578Z,19232
2017-06-17T08:47:14.045Z,21440
2017-06-17T08:48:27.867Z,19904
2017-06-17T08:49:43.381Z,48672
2017-06-17T08:50:58.868Z,15888
2017-06-17T08:52:14.580Z,20288
2017-06-17T08:53:29.907Z,19456
2017-06-17T08:54:45.356Z,17920
2017-06-17T08:55:59.526Z,18208
2017-06-17T08:57:15.124Z,20416
2017-06-17T08:58:29.273Z,17216
2017-06-17T08:59:43.474Z,23136
2017-06-17T09:00:58.963Z,24864
2017-06-17T09:02:14.444Z,21216
2017-06-17T09:03:29.927Z,27808
2017-06-17T09:04:45.399Z,91936
2017-06-17T09:06:00.858Z,22240
2017-06-17T09:07:16.529Z,17760
2017-06-17T09:08:31.652Z,15272
2017-06-17T09:09:47.099Z,15192
2017-06-17T09:11:02.762Z,23456
2017-06-17T09:12:18.161Z,81280
2017-06-17T09:13:33.602Z,76896
2017-06-17T09:14:49.073Z,102144
2017-06-17T09:16:04.502Z,124992
2017-06-17T09:17:19.986Z,16140
2017-06-17T09:18:35.681Z,26432
2017-06-17T09:19:51.163Z,127936
2017-06-17T09:21:06.675Z,121856
2017-06-17T09:22:22.110Z,81888
2017-06-17T09:23:37.541Z,80928
2017-06-17T09:24:53.050Z,25920
2017-06-17T09:26:08.560Z,103680
2017-06-17T09:27:24.047Z,28320
2017-06-17T09:28:39.488Z,51968
2017-06-17T09:29:54.970Z,17408
2017-06-17T09:31:10.430Z,124736
2017-06-17T09:32:26.129Z,94112
2017-06-17T09:33:41.647Z,104000
2017-06-17T09:34:56.746Z,95904
2017-06-17T09:36:12.216Z,43648
2017-06-17T09:37:27.688Z,25568
2017-06-17T09:38:43.166Z,127136
2017-06-17T09:39:58.692Z,47552
2017-06-17T09:41:14.215Z,22720
2017-06-17T09:42:28.390Z,123808
2017-06-17T09:43:43.913Z,107584
2017-06-17T09:44:59.449Z,93536
2017-06-17T09:46:14.916Z,111776
2017-06-17T09:47:30.470Z,25760
2017-06-17T09:48:45.940Z,47680
2017-06-17T09:50:01.411Z,84416
2017-06-17T09:51:15.484Z,32576
2017-06-17T09:52:31.089Z,33696
2017-06-17T09:53:45.474Z,24256
2017-06-17T09:55:01.005Z,123552
2017-06-17T09:56:16.516Z,121632
2017-06-17T09:57:31.978Z,136960
2017-06-17T09:58:47.579Z,130368
2017-06-17T10:00:03.036Z,66848
2017-06-17T10:01:18.555Z,135456
2017-06-17T10:02:34.015Z,23200
2017-06-17T10:03:48.173Z,92576
2017-06-17T10:05:02.340Z,80448
2017-06-17T10:06:17.813Z,136192
2017-06-17T10:07:33.465Z,22624
2017-06-17T10:08:47.477Z,21568
2017-06-17T10:10:03.108Z,120960
2017-06-17T10:11:18.613Z,25536
2017-06-17T10:12:34.129Z,124352
2017-06-17T10:13:49.626Z,107104
2017-06-17T10:15:05.145Z,117760
2017-06-17T10:16:20.997Z,67360
2017-06-17T10:17:36.639Z,17824
2017-06-17T10:18:52.125Z,153696
2017-06-17T10:20:07.649Z,157408
2017-06-17T10:21:21.815Z,154752
2017-06-17T10:22:37.300Z,158336
2017-06-17T10:23:52.770Z,51904
2017-06-17T10:25:08.386Z,26080
2017-06-17T10:26:23.774Z,22432
2017-06-17T10:27:39.251Z,23776
2017-06-17T10:28:53.429Z,79104
2017-06-17T10:30:08.962Z,27104
2017-06-17T10:31:24.126Z,22112
2017-06-17T10:32:39.612Z,26048
2017-06-17T10:33:55.225Z,122592
2017-06-17T10:35:09.374Z,143616
2017-06-17T10:36:24.801Z,141056
2017-06-17T10:37:39.983Z,130400
2017-06-17T10:38:54.214Z,28416
2017-06-17T10:40:23.317Z,14828
2017-06-17T10:41:38.791Z,21952
2017-06-17T10:42:54.416Z,114080
2017-06-17T10:44:10.070Z,123808
2017-06-17T10:45:25.559Z,134048
2017-06-17T10:46:41.034Z,154432
2017-06-17T10:47:56.950Z,151232
2017-06-17T10:49:12.493Z,123744
2017-06-17T10:50:28.000Z,111936
2017-06-17T10:51:43.609Z,115136
2017-06-17T10:52:59.325Z,106848
2017-06-17T10:54:15.031Z,121536
2017-06-17T10:55:30.698Z,152736
2017-06-17T10:56:46.323Z,91904
2017-06-17T10:58:01.841Z,16864
2017-06-17T10:59:17.305Z,13932
2017-06-17T11:00:32.805Z,11476
2017-06-17T11:01:48.253Z,12812
2017-06-17T11:03:03.730Z,15728
2017-06-17T11:04:19.209Z,131392
2017-06-17T11:05:34.930Z,100864
2017-06-17T11:06:50.412Z,18656
2017-06-17T11:08:05.884Z,15400
2017-06-17T11:09:21.392Z,18816
2017-06-17T11:10:36.847Z,34368
2017-06-17T11:11:52.384Z,64160
2017-06-17T11:13:07.875Z,155232
2017-06-17T11:14:22.195Z,123904
2017-06-17T11:15:37.923Z,132416
2017-06-17T11:16:53.417Z,173216
2017-06-17T11:18:08.920Z,144224
2017-06-17T11:19:24.412Z,65760
2017-06-17T11:20:39.497Z,116896
2017-06-17T11:21:55.015Z,148736
2017-06-17T11:23:10.530Z,76800
2017-06-17T11:24:26.069Z,90528
2017-06-17T11:25:41.561Z,65088
2017-06-17T11:26:57.045Z,20096
2017-06-17T11:28:12.698Z,147488
2017-06-17T11:29:28.189Z,147360
2017-06-17T11:30:43.737Z,120384
2017-06-17T11:31:59.199Z,124640
2017-06-17T11:33:14.989Z,91104
2017-06-17T11:34:30.497Z,155232
2017-06-17T11:35:45.576Z,123808
2017-06-17T11:36:59.939Z,23872
2017-06-17T11:38:15.466Z,17088
2017-06-17T11:39:30.943Z,147040
2017-06-17T11:40:46.446Z,27392
2017-06-17T11:42:01.934Z,35552
2017-06-17T11:43:17.561Z,17376
2017-06-17T11:44:33.087Z,80800
2017-06-17T11:45:47.362Z,114368
2017-06-17T11:47:02.971Z,107168
2017-06-17T11:48:17.247Z,126368
2017-06-17T11:49:32.694Z,123776
2017-06-17T11:50:48.197Z,102016
2017-06-17T11:52:03.654Z,100864
2017-06-17T11:53:19.155Z,62688
2017-06-17T11:54:34.659Z,38272
2017-06-17T11:55:50.295Z,124128
2017-06-17T11:57:04.369Z,20480
2017-06-17T11:58:20.065Z,18144
2017-06-17T11:59:35.548Z,103392
2017-06-17T12:00:51.093Z,38464
2017-06-17T12:02:06.589Z,99424
2017-06-17T12:03:22.124Z,114272
2017-06-17T12:04:37.635Z,98944
2017-06-17T12:05:53.322Z,95296
2017-06-17T12:07:08.818Z,112736
2017-06-17T12:08:24.581Z,65536
2017-06-17T12:09:40.110Z,26656
2017-06-17T12:10:55.617Z,81312
2017-06-17T12:12:11.076Z,23744
2017-06-17T12:13:26.565Z,18912
2017-06-17T12:14:42.058Z,16128
2017-06-17T12:15:56.248Z,95648
2017-06-17T12:17:11.832Z,141216
2017-06-17T12:18:27.375Z,126560
2017-06-17T12:19:42.852Z,126752
2017-06-17T12:20:58.266Z,112928
2017-06-17T12:22:14.059Z,55392
2017-06-17T12:23:29.697Z,102944
2017-06-17T12:24:45.163Z,114784
2017-06-17T12:26:00.851Z,129920
2017-06-17T12:27:16.370Z,135744
2017-06-17T12:28:32.001Z,140064
2017-06-17T12:29:47.575Z,123808
2017-06-17T12:31:03.101Z,100256
2017-06-17T12:32:18.611Z,21600
2017-06-17T12:33:34.099Z,40480
2017-06-17T12:34:49.560Z,93760
2017-06-17T12:36:05.066Z,134176
2017-06-17T12:37:20.686Z,139520
2017-06-17T12:38:35.847Z,41280
2017-06-17T12:39:51.348Z,145856
2017-06-17T12:41:06.936Z,119904
2017-06-17T12:42:22.621Z,106144
2017-06-17T12:43:38.146Z,116160
2017-06-17T12:44:53.855Z,103072
2017-06-17T12:46:09.580Z,95840
2017-06-17T12:47:39.020Z,128032
2017-06-17T12:48:53.097Z,163520
2017-06-17T12:50:08.415Z,26400
2017-06-17T12:51:23.894Z,124320
2017-06-17T12:52:39.434Z,67776
2017-06-17T12:53:54.570Z,138752
2017-06-17T12:55:10.083Z,25536
2017-06-17T12:56:25.583Z,21792
2017-06-17T12:57:41.036Z,112704
2017-06-17T12:58:56.701Z,78240
2017-06-17T13:00:10.763Z,34080
2017-06-17T13:01:26.229Z,128864
2017-06-17T13:02:41.923Z,120672
2017-06-17T13:03:57.438Z,116256
2017-06-17T13:05:13.147Z,112480
2017-06-17T13:06:28.655Z,102336
2017-06-17T13:07:44.216Z,70816
2017-06-17T13:08:59.695Z,106720
2017-06-17T13:10:15.198Z,126400
2017-06-17T13:11:30.677Z,141152
2017-06-17T13:12:46.185Z,134048
2017-06-17T13:14:01.670Z,112352
2017-06-17T13:15:17.166Z,108320
2017-06-17T13:16:32.647Z,139552
2017-06-17T13:17:48.123Z,150016
2017-06-17T13:19:03.618Z,127424
2017-06-17T13:20:18.116Z,126976
2017-06-17T13:21:33.628Z,17792
2017-06-17T13:22:49.306Z,14032
2017-06-17T13:24:04.749Z,69920
2017-06-17T13:25:20.215Z,75552
2017-06-17T13:26:35.672Z,88736
2017-06-17T13:27:51.171Z,21952
2017-06-17T13:29:06.658Z,41376
2017-06-17T13:30:35.629Z,110016
2017-06-17T13:31:51.065Z,102336
2017-06-17T13:33:06.566Z,19680
2017-06-17T13:34:22.054Z,111040
2017-06-17T13:35:36.210Z,24608
2017-06-17T13:36:51.644Z,92320
2017-06-17T13:38:07.329Z,111456
2017-06-17T13:39:22.861Z,101696
2017-06-17T13:40:38.483Z,70976
2017-06-17T13:41:54.033Z,20000
2017-06-17T13:43:09.432Z,101024
2017-06-17T13:44:24.944Z,18912
2017-06-17T13:45:40.478Z,16832
2017-06-17T13:46:55.969Z,20896
2017-06-17T13:48:11.450Z,69184
2017-06-17T13:49:27.052Z,116128
2017-06-17T13:50:42.615Z,120800
2017-06-17T13:51:58.095Z,72736
2017-06-17T13:53:13.538Z,75392
2017-06-17T13:54:29.193Z,15668
2017-06-17T13:55:44.942Z,18880
2017-06-17T13:57:00.678Z,91520
2017-06-17T13:58:16.197Z,74016
2017-06-17T13:59:31.860Z,88672
2017-06-17T14:00:47.599Z,109152
2017-06-17T14:02:03.076Z,97632
2017-06-17T14:03:18.587Z,58304
2017-06-17T14:04:34.220Z,56736
2017-06-17T14:05:49.756Z,96672
2017-06-17T14:07:05.243Z,128288
2017-06-17T14:08:20.789Z,16352
2017-06-17T14:09:36.257Z,76704
2017-06-17T14:10:51.762Z,88192
2017-06-17T14:12:05.954Z,19008
2017-06-17T14:13:21.541Z,90624
2017-06-17T14:14:37.025Z,11524
2017-06-17T14:15:52.536Z,11448
2017-06-17T14:17:08.109Z,11632
2017-06-17T14:18:23.625Z,81120
2017-06-17T14:19:39.182Z,88608
2017-06-17T14:20:54.845Z,105824
2017-06-17T14:22:10.362Z,104512
2017-06-17T14:23:25.908Z,105888
2017-06-17T14:24:41.400Z,112960
2017-06-17T14:25:56.598Z,97504
2017-06-17T14:27:12.287Z,81632
2017-06-17T14:28:27.851Z,32000
2017-06-17T14:29:43.430Z,82272
2017-06-17T14:30:58.969Z,13628
2017-06-17T14:32:14.622Z,58912
2017-06-17T14:33:30.163Z,63712
2017-06-17T14:34:45.690Z,82272
2017-06-17T14:36:01.430Z,12708
2017-06-17T14:37:16.951Z,85088
2017-06-17T14:38:29.685Z,78016
2017-06-17T14:39:45.186Z,21600
2017-06-17T14:41:00.711Z,103744
2017-06-17T14:42:16.446Z,79648
2017-06-17T14:43:31.991Z,70944
2017-06-17T14:44:47.448Z,89728
2017-06-17T14:46:03.149Z,106240
2017-06-17T14:47:18.669Z,93856
2017-06-17T14:48:34.148Z,66592
2017-06-17T14:49:49.614Z,72928
2017-06-17T14:51:05.639Z,94432
2017-06-17T14:52:19.741Z,9744
2017-06-17T14:53:35.233Z,12668
2017-06-17T14:54:50.313Z,7064
2017-06-17T14:56:05.942Z,7752
2017-06-17T14:57:21.395Z,28736
2017-06-17T14:58:36.894Z,61184
2017-06-17T14:59:52.402Z,79008
2017-06-17T15:01:07.960Z,36864
2017-06-17T15:02:22.155Z,10620
2017-06-17T15:03:37.683Z,13684
2017-06-17T15:04:53.525Z,9964
2017-06-17T15:06:08.964Z,13532
2017-06-17T15:07:24.455Z,12884
2017-06-17T15:08:40.757Z,13468
2017-06-17T15:09:56.507Z,10076
2017-06-17T15:11:12.492Z,11628
2017-06-17T15:12:28.007Z,11152
2017-06-17T15:13:43.490Z,10184
2017-06-17T15:14:59.189Z,8576
2017-06-17T15:16:14.784Z,10636
2017-06-17T15:17:30.445Z,11892
2017-06-17T15:18:45.946Z,10192
2017-06-17T15:20:15.182Z,10056
2017-06-17T15:21:30.817Z,13620
2017-06-17T15:22:46.368Z,13672
2017-06-17T15:24:01.918Z,12304
2017-06-17T15:25:17.598Z,10872
2017-06-17T15:26:33.067Z,9840
2017-06-17T15:27:48.595Z,9436
2017-06-17T15:29:03.716Z,8920
2017-06-17T15:30:19.234Z,8532
2017-06-17T15:31:34.828Z,8140
2017-06-17T15:32:50.262Z,8064
2017-06-17T15:34:06.083Z,7988
2017-06-17T15:35:21.586Z,8112
2017-06-17T15:36:37.326Z,8256
2017-06-17T15:37:51.490Z,8132
2017-06-17T15:39:06.986Z,8072
2017-06-17T15:40:21.144Z,8020
2017-06-17T15:41:36.838Z,7940
2017-06-17T15:42:50.877Z,7916
2017-06-17T15:44:06.559Z,7864
2017-06-17T15:45:22.078Z,7808
2017-06-17T15:46:36.248Z,7784
2017-06-17T15:47:51.797Z,7664
2017-06-17T15:49:07.487Z,7552
2017-06-17T15:50:22.971Z,7468
2017-06-17T15:51:36.957Z,8784
2017-06-17T15:52:52.450Z,8916
2017-06-17T15:54:07.902Z,8828
2017-06-17T15:55:23.183Z,6888
2017-06-17T15:56:38.688Z,6892
2017-06-17T15:57:52.960Z,8072
2017-06-17T15:59:08.369Z,9180
2017-06-17T16:00:23.956Z,8932
2017-06-17T16:01:39.402Z,10564
2017-06-17T16:02:55.116Z,9068
2017-06-17T16:04:10.668Z,8676
2017-06-17T16:05:26.083Z,9276
2017-06-17T16:06:41.592Z,8788
2017-06-17T16:07:57.089Z,8632
2017-06-17T16:09:12.593Z,8332
2017-06-17T16:10:26.906Z,8620
2017-06-17T16:11:42.447Z,9212
2017-06-17T16:12:57.952Z,8492
2017-06-17T16:14:13.449Z,8428
2017-06-17T16:15:29.156Z,7444
2017-06-17T16:16:44.593Z,6764
2017-06-17T16:18:00.108Z,6644
2017-06-17T16:19:15.591Z,5880
2017-06-17T16:20:31.041Z,5476
2017-06-17T16:21:59.971Z,4980
2017-06-17T16:23:15.655Z,5000
2017-06-17T16:24:44.139Z,5224
2017-06-17T16:25:59.643Z,6060
2017-06-17T16:27:15.343Z,6180
2017-06-17T16:28:31.067Z,7312
2017-06-17T16:29:46.726Z,6608
2017-06-17T16:31:02.227Z,6572
2017-06-17T16:32:17.763Z,7444
2017-06-17T16:33:33.288Z,6972
2017-06-17T16:34:48.876Z,5808
2017-06-17T16:36:04.388Z,6272
2017-06-17T16:37:19.909Z,7508
2017-06-17T16:38:35.447Z,6756
2017-06-17T16:39:50.971Z,6368
2017-06-17T16:41:06.444Z,6192
2017-06-17T16:42:20.538Z,5488